PROFILE

 METAR AND TAF INFORMATION
ADDS - METARS form results

(0649 UTC 19 July 2019)
http://aviationweather.gov/metar/data/
 
DAAE 190600Z 23008KT CAVOK 21/19 Q1015
TAF DAAE 190500Z 1906/2006 23006KT 9999 FEW020 BECMG 1907/1909 04006KT BECMG 1918/1920 27006KT 

 AIRPORT MAP

 RUNWAY INFORMATION
Runway 08 Runway length 7874 ft Runway width 148 ft
Runway elevation 20 ft Runway displaced threshold 0 ft Runway heading 80
Runway 26 Runway length 7874 ft Runway width 148 ft
Runway elevation 10 ft Runway displaced threshold 0 ft Runway heading 260

 AIRPORT FREQUENCIES
Type TWR Name BEJAIA TWR Frequency 118.9 MHZ

 AIRPORT NEAR NAVIGATION AIDS
Type NDB Name Bejaia Frequency 423 KHZ